Airfield :
LOGIN :

Register | Disclaimer

   EN    FR    IT 

 










Legend :    VFR   Marginal VFR   IFR   Intensive IFR   Very Intensive IFR
Visi :
Ceiling :
>= 8 km
>= 3000ft
5 to 8 km
1000 to 3000 ft
1500m to 5 km
500 to 1000 ft
800 to 1500m
200 to 500 ft
< 800m
< 200 ft
Symbols :   Thunderstorms  Fog  Heavy snow  Heavy precipitations  Wind > 20 kt
SIGMETs :     Misc.  Thunderstorms  Icing  Turbulence  Mountain Waves  Volcanic Ashes







- Airport Elevation : 31 ft
- IATA code : INV
- Download approach charts


EGPE - Inverness

CURRENT METAR :
  • 150750Z 22012KT 9999 FEW012 SCT033 11/07 Q1017

EXPIRED METARs :
  • 150720Z 24010KT 210V280 9999 FEW012 SCT033 11/06 Q1017
  • 150650Z 24009KT 9999 FEW020 SCT036 11/05 Q1017
  • 150620Z 23012KT 190V250 9999 FEW020 SCT037 11/05 Q1016
  • 150550Z 24011KT 190V260 9999 FEW020 SCT042 10/05 Q1016
  • 150520Z 24020G30KT 9999 FEW042 10/05 Q1015
  • 150450Z 23024KT 9999 FEW042 10/04 Q1015

TAF TAF EGPE
Valid from the 15 at 06:00 until the 15 at 15:00 UTC


150500Z 1506/1515 24017KT 9999 SCT020
TEMPO 1506/1512 25020G34KT
ATIS : +44 1667 464 255
No reported NOTAMs for that airfield.



MET'MAP, your aeronautical weather chart ! - Copyright ORBIFLY December 2007 - Disclaimer

ORBIFLY MET'MAP TEAM :

Programming & Development : Alexandra Zaïnal
Concept & Development : Baudouin d'Aumeries
Co-Development & Prog : Marc-Olivier Méhu
Technical & hardware support : Manuel Goepfert

Contact : metmap@orbifly.com




SOURCES & CREDITS :

   NOAA